sensor_id;sensor_type;location;lat;lon;timestamp;pressure;altitude;pressure_sealevel;temperature;humidity
59194;BME280;44967;48.598;15.650;2023-02-16T00:01:39;99395.13;;;0.17;81.66
59194;BME280;44967;48.598;15.650;2023-02-16T00:04:17;99395.94;;;0.16;81.47
59194;BME280;44967;48.598;15.650;2023-02-16T00:06:44;99396.81;;;0.15;81.55
59194;BME280;44967;48.598;15.650;2023-02-16T00:09:09;99391.47;;;0.11;82.28
59194;BME280;44967;48.598;15.650;2023-02-16T00:11:35;99400.78;;;0.03;82.37
59194;BME280;44967;48.598;15.650;2023-02-16T00:14:20;99401.66;;;0.03;82.67
59194;BME280;44967;48.598;15.650;2023-02-16T00:16:58;99394.06;;;0.11;83.13
59194;BME280;44967;48.598;15.650;2023-02-16T00:19:35;99390.47;;;0.06;83.67
59194;BME280;44967;48.598;15.650;2023-02-16T00:22:01;99389.75;;;0.11;82.93
59194;BME280;44967;48.598;15.650;2023-02-16T00:24:28;99387.28;;;0.16;83.22
59194;BME280;44967;48.598;15.650;2023-02-16T00:26:55;99383.88;;;0.18;83.71
59194;BME280;44967;48.598;15.650;2023-02-16T00:29:27;99386.19;;;0.08;83.65
59194;BME280;44967;48.598;15.650;2023-02-16T00:31:54;99387.59;;;-0.04;82.86
59194;BME280;44967;48.598;15.650;2023-02-16T00:37:02;99392.31;;;-0.20;83.52
59194;BME280;44967;48.598;15.650;2023-02-16T00:39:28;99384.56;;;-0.19;84.39
59194;BME280;44967;48.598;15.650;2023-02-16T00:41:58;99377.03;;;-0.10;83.88
59194;BME280;44967;48.598;15.650;2023-02-16T00:44:28;99376.00;;;-0.15;83.63
59194;BME280;44967;48.598;15.650;2023-02-16T00:46:54;99371.66;;;-0.16;83.59
59194;BME280;44967;48.598;15.650;2023-02-16T00:49:21;99379.56;;;-0.13;83.88
59194;BME280;44967;48.598;15.650;2023-02-16T00:51:48;99377.25;;;-0.02;83.87
59194;BME280;44967;48.598;15.650;2023-02-16T00:54:14;99378.06;;;-0.05;83.80
59194;BME280;44967;48.598;15.650;2023-02-16T00:56:39;99379.94;;;0.01;83.72
59194;BME280;44967;48.598;15.650;2023-02-16T00:59:10;99377.41;;;0.04;83.79
59194;BME280;44967;48.598;15.650;2023-02-16T01:01:38;99375.47;;;-0.03;83.34
59194;BME280;44967;48.598;15.650;2023-02-16T01:04:06;99372.13;;;-0.01;83.77
59194;BME280;44967;48.598;15.650;2023-02-16T01:06:32;99366.09;;;0.02;84.21
59194;BME280;44967;48.598;15.650;2023-02-16T01:09:19;99371.38;;;0.05;84.63
59194;BME280;44967;48.598;15.650;2023-02-16T01:14:32;99360.34;;;-0.18;83.22
59194;BME280;44967;48.598;15.650;2023-02-16T01:16:58;99362.50;;;-0.33;83.27
59194;BME280;44967;48.598;15.650;2023-02-16T01:19:24;99355.63;;;-0.31;84.21
59194;BME280;44967;48.598;15.650;2023-02-16T01:21:49;99346.56;;;-0.45;84.36
59194;BME280;44967;48.598;15.650;2023-02-16T01:24:15;99344.31;;;-0.33;84.32
59194;BME280;44967;48.598;15.650;2023-02-16T01:26:43;99343.97;;;-0.45;84.62
59194;BME280;44967;48.598;15.650;2023-02-16T01:29:16;99353.25;;;-0.23;84.46
59194;BME280;44967;48.598;15.650;2023-02-16T01:31:42;99356.56;;;-0.29;84.41
59194;BME280;44967;48.598;15.650;2023-02-16T01:34:07;99351.72;;;-0.17;84.30
59194;BME280;44967;48.598;15.650;2023-02-16T01:36:36;99350.56;;;-0.26;84.18
59194;BME280;44967;48.598;15.650;2023-02-16T01:39:03;99352.13;;;-0.33;84.24
59194;BME280;44967;48.598;15.650;2023-02-16T01:41:53;99355.69;;;-0.29;84.18
59194;BME280;44967;48.598;15.650;2023-02-16T01:44:27;99347.94;;;-0.28;83.65
59194;BME280;44967;48.598;15.650;2023-02-16T01:47:28;99351.38;;;-0.29;83.68
59194;BME280;44967;48.598;15.650;2023-02-16T01:49:49;99351.66;;;-0.18;83.50
59194;BME280;44967;48.598;15.650;2023-02-16T01:52:33;99349.69;;;-0.27;83.54
59194;BME280;44967;48.598;15.650;2023-02-16T01:57:42;99351.38;;;-0.29;84.35
59194;BME280;44967;48.598;15.650;2023-02-16T02:00:23;99344.59;;;-0.24;84.14
59194;BME280;44967;48.598;15.650;2023-02-16T02:02:54;99345.25;;;-0.31;84.31
59194;BME280;44967;48.598;15.650;2023-02-16T02:05:41;99347.94;;;-0.28;84.16
59194;BME280;44967;48.598;15.650;2023-02-16T02:10:53;99328.78;;;-0.31;83.98
59194;BME280;44967;48.598;15.650;2023-02-16T02:15:49;99330.69;;;-0.26;83.34
59194;BME280;44967;48.598;15.650;2023-02-16T02:18:16;99333.50;;;-0.48;83.48
59194;BME280;44967;48.598;15.650;2023-02-16T02:29:26;99329.28;;;-0.43;83.48
59194;BME280;44967;48.598;15.650;2023-02-16T02:40:07;99317.56;;;-0.60;82.50
59194;BME280;44967;48.598;15.650;2023-02-16T02:42:50;99318.84;;;-0.74;82.19
59194;BME280;44967;48.598;15.650;2023-02-16T02:45:19;99318.47;;;-0.86;82.57
59194;BME280;44967;48.598;15.650;2023-02-16T02:47:47;99321.25;;;-0.80;82.80
59194;BME280;44967;48.598;15.650;2023-02-16T02:51:02;99317.84;;;-0.79;82.40
59194;BME280;44967;48.598;15.650;2023-02-16T02:56:40;99323.09;;;-1.05;83.68
59194;BME280;44967;48.598;15.650;2023-02-16T02:59:27;99319.44;;;-0.83;82.78
59194;BME280;44967;48.598;15.650;2023-02-16T03:02:14;99327.03;;;-0.89;82.20
59194;BME280;44967;48.598;15.650;2023-02-16T03:04:41;99324.31;;;-0.93;82.58
59194;BME280;44967;48.598;15.650;2023-02-16T03:07:09;99326.59;;;-1.03;82.27
59194;BME280;44967;48.598;15.650;2023-02-16T03:09:36;99329.50;;;-0.93;82.52
59194;BME280;44967;48.598;15.650;2023-02-16T03:12:03;99335.09;;;-1.08;82.17
59194;BME280;44967;48.598;15.650;2023-02-16T03:14:53;99327.63;;;-0.98;82.32
59194;BME280;44967;48.598;15.650;2023-02-16T03:17:30;99333.47;;;-1.05;82.84
59194;BME280;44967;48.598;15.650;2023-02-16T03:20:16;99339.19;;;-1.15;82.63
59194;BME280;44967;48.598;15.650;2023-02-16T03:23:02;99336.78;;;-1.09;82.54
59194;BME280;44967;48.598;15.650;2023-02-16T03:25:47;99337.53;;;-1.13;83.17
59194;BME280;44967;48.598;15.650;2023-02-16T03:28:33;99334.59;;;-1.23;82.56
59194;BME280;44967;48.598;15.650;2023-02-16T03:31:23;99329.66;;;-1.16;82.84
59194;BME280;44967;48.598;15.650;2023-02-16T03:33:52;99336.41;;;-1.21;82.69
59194;BME280;44967;48.598;15.650;2023-02-16T03:36:21;99329.97;;;-1.32;82.99
59194;BME280;44967;48.598;15.650;2023-02-16T03:38:47;99330.91;;;-1.30;82.35
59194;BME280;44967;48.598;15.650;2023-02-16T03:41:13;99334.28;;;-1.32;82.54
59194;BME280;44967;48.598;15.650;2023-02-16T03:43:39;99336.22;;;-1.27;82.62
59194;BME280;44967;48.598;15.650;2023-02-16T03:46:04;99332.88;;;-1.23;82.25
59194;BME280;44967;48.598;15.650;2023-02-16T03:48:30;99328.31;;;-1.30;82.00
59194;BME280;44967;48.598;15.650;2023-02-16T03:50:55;99338.28;;;-1.42;82.68
59194;BME280;44967;48.598;15.650;2023-02-16T03:53:21;99327.25;;;-1.36;82.01
59194;BME280;44967;48.598;15.650;2023-02-16T03:55:47;99336.09;;;-1.30;81.98
59194;BME280;44967;48.598;15.650;2023-02-16T03:58:16;99331.75;;;-1.31;81.91
59194;BME280;44967;48.598;15.650;2023-02-16T04:00:43;99331.84;;;-1.28;81.65
59194;BME280;44967;48.598;15.650;2023-02-16T04:03:09;99333.66;;;-1.25;80.97
59194;BME280;44967;48.598;15.650;2023-02-16T04:05:34;99332.25;;;-1.41;81.14
59194;BME280;44967;48.598;15.650;2023-02-16T04:08:00;99326.91;;;-1.46;81.22
59194;BME280;44967;48.598;15.650;2023-02-16T04:10:26;99321.72;;;-1.47;81.08
59194;BME280;44967;48.598;15.650;2023-02-16T04:12:52;99330.88;;;-1.57;81.67
59194;BME280;44967;48.598;15.650;2023-02-16T04:15:20;99328.34;;;-1.55;82.07
59194;BME280;44967;48.598;15.650;2023-02-16T04:17:46;99327.78;;;-1.47;81.81
59194;BME280;44967;48.598;15.650;2023-02-16T04:20:16;99323.97;;;-1.56;82.13
59194;BME280;44967;48.598;15.650;2023-02-16T04:22:43;99326.72;;;-1.52;81.61
59194;BME280;44967;48.598;15.650;2023-02-16T04:25:09;99323.66;;;-1.65;81.68
59194;BME280;44967;48.598;15.650;2023-02-16T04:27:36;99331.75;;;-1.56;81.63
59194;BME280;44967;48.598;15.650;2023-02-16T04:30:03;99324.72;;;-1.60;81.72
59194;BME280;44967;48.598;15.650;2023-02-16T04:32:30;99314.41;;;-1.59;81.66
59194;BME280;44967;48.598;15.650;2023-02-16T04:34:55;99308.38;;;-1.58;81.85
59194;BME280;44967;48.598;15.650;2023-02-16T04:37:21;99305.75;;;-1.59;81.31
59194;BME280;44967;48.598;15.650;2023-02-16T04:39:47;99308.38;;;-1.58;80.98
59194;BME280;44967;48.598;15.650;2023-02-16T04:42:12;99305.03;;;-1.55;80.58
59194;BME280;44967;48.598;15.650;2023-02-16T04:44:38;99309.25;;;-1.57;80.24
59194;BME280;44967;48.598;15.650;2023-02-16T04:47:04;99312.38;;;-1.67;81.23
59194;BME280;44967;48.598;15.650;2023-02-16T04:49:29;99305.75;;;-1.59;80.78
59194;BME280;44967;48.598;15.650;2023-02-16T04:51:55;99313.19;;;-1.68;80.34
59194;BME280;44967;48.598;15.650;2023-02-16T04:54:21;99307.56;;;-1.82;80.72
59194;BME280;44967;48.598;15.650;2023-02-16T04:56:47;99311.97;;;-1.79;80.60
59194;BME280;44967;48.598;15.650;2023-02-16T04:59:14;99312.59;;;-1.86;80.20
59194;BME280;44967;48.598;15.650;2023-02-16T05:01:41;99309.44;;;-1.78;80.41
59194;BME280;44967;48.598;15.650;2023-02-16T05:04:07;99311.00;;;-1.81;79.94
59194;BME280;44967;48.598;15.650;2023-02-16T05:06:36;99311.69;;;-1.87;79.57
59194;BME280;44967;48.598;15.650;2023-02-16T05:09:03;99308.94;;;-1.92;79.66
59194;BME280;44967;48.598;15.650;2023-02-16T05:11:28;99308.94;;;-1.92;79.70
59194;BME280;44967;48.598;15.650;2023-02-16T05:14:22;99307.56;;;-1.82;80.40
59194;BME280;44967;48.598;15.650;2023-02-16T05:17:19;99302.09;;;-1.90;79.52
59194;BME280;44967;48.598;15.650;2023-02-16T05:19:46;99305.47;;;-1.92;80.19
59194;BME280;44967;48.598;15.650;2023-02-16T05:22:14;99305.88;;;-2.05;79.33
59194;BME280;44967;48.598;15.650;2023-02-16T05:24:40;99311.44;;;-1.95;79.89
59194;BME280;44967;48.598;15.650;2023-02-16T05:27:10;99309.66;;;-1.96;79.61
59194;BME280;44967;48.598;15.650;2023-02-16T05:29:36;99313.75;;;-2.02;79.88
59194;BME280;44967;48.598;15.650;2023-02-16T05:32:01;99316.22;;;-2.05;80.28
59194;BME280;44967;48.598;15.650;2023-02-16T05:34:27;99304.16;;;-2.05;79.57
59194;BME280;44967;48.598;15.650;2023-02-16T05:36:53;99320.47;;;-2.07;79.88
59194;BME280;44967;48.598;15.650;2023-02-16T05:39:20;99320.81;;;-1.98;80.40
59194;BME280;44967;48.598;15.650;2023-02-16T05:41:46;99324.88;;;-2.05;80.42
59194;BME280;44967;48.598;15.650;2023-02-16T05:44:12;99319.81;;;-2.02;80.49
59194;BME280;44967;48.598;15.650;2023-02-16T05:46:38;99325.13;;;-1.97;80.45
59194;BME280;44967;48.598;15.650;2023-02-16T05:49:06;99327.63;;;-2.00;80.27
59194;BME280;44967;48.598;15.650;2023-02-16T05:51:32;99341.84;;;-2.13;81.03
59194;BME280;44967;48.598;15.650;2023-02-16T05:53:58;99336.91;;;-2.07;81.34
59194;BME280;44967;48.598;15.650;2023-02-16T05:56:24;99338.16;;;-1.96;81.20
59194;BME280;44967;48.598;15.650;2023-02-16T05:58:51;99340.66;;;-1.99;80.95
59194;BME280;44967;48.598;15.650;2023-02-16T06:01:18;99335.75;;;-2.15;81.09
59194;BME280;44967;48.598;15.650;2023-02-16T06:03:44;99337.66;;;-2.09;81.32
59194;BME280;44967;48.598;15.650;2023-02-16T06:06:10;99343.84;;;-2.06;80.98
59194;BME280;44967;48.598;15.650;2023-02-16T06:08:36;99352.88;;;-1.95;81.21
59194;BME280;44967;48.598;15.650;2023-02-16T06:11:03;99345.03;;;-1.96;81.63
59194;BME280;44967;48.598;15.650;2023-02-16T06:13:31;99347.25;;;-2.07;81.30
59194;BME280;44967;48.598;15.650;2023-02-16T06:15:58;99355.28;;;-1.99;81.79
59194;BME280;44967;48.598;15.650;2023-02-16T06:18:24;99346.03;;;-1.93;80.94
59194;BME280;44967;48.598;15.650;2023-02-16T06:20:50;99345.91;;;-1.96;81.24
59194;BME280;44967;48.598;15.650;2023-02-16T06:23:16;99344.56;;;-2.10;80.57
59194;BME280;44967;48.598;15.650;2023-02-16T06:25:43;99339.84;;;-1.96;80.82
59194;BME280;44967;48.598;15.650;2023-02-16T06:28:09;99347.34;;;-2.04;79.96
59194;BME280;44967;48.598;15.650;2023-02-16T06:30:35;99350.56;;;-2.11;79.68
59194;BME280;44967;48.598;15.650;2023-02-16T06:33:01;99349.47;;;-2.17;79.63
59194;BME280;44967;48.598;15.650;2023-02-16T06:35:28;99352.34;;;-2.10;79.27
59194;BME280;44967;48.598;15.650;2023-02-16T06:37:53;99358.53;;;-2.05;79.66
59194;BME280;44967;48.598;15.650;2023-02-16T06:40:19;99359.78;;;-1.94;79.55
59194;BME280;44967;48.598;15.650;2023-02-16T06:42:45;99357.88;;;-1.99;80.33
59194;BME280;44967;48.598;15.650;2023-02-16T06:45:10;99360.81;;;-1.90;80.36
59194;BME280;44967;48.598;15.650;2023-02-16T06:47:37;99353.41;;;-2.03;80.74
59194;BME280;44967;48.598;15.650;2023-02-16T06:50:03;99360.69;;;-1.93;80.54
59194;BME280;44967;48.598;15.650;2023-02-16T06:52:30;99353.59;;;-1.99;80.47
59194;BME280;44967;48.598;15.650;2023-02-16T06:54:55;99359.50;;;-2.03;80.83
59194;BME280;44967;48.598;15.650;2023-02-16T06:57:21;99352.97;;;-1.92;81.03
59194;BME280;44967;48.598;15.650;2023-02-16T06:59:46;99361.81;;;-1.86;81.56
59194;BME280;44967;48.598;15.650;2023-02-16T07:02:12;99368.41;;;-1.71;81.41
59194;BME280;44967;48.598;15.650;2023-02-16T07:04:37;99358.91;;;-1.70;81.02
59194;BME280;44967;48.598;15.650;2023-02-16T07:07:03;99361.72;;;-1.64;81.19
59194;BME280;44967;48.598;15.650;2023-02-16T07:09:29;99367.41;;;-1.74;81.56
59194;BME280;44967;48.598;15.650;2023-02-16T07:11:54;99358.56;;;-1.56;81.60
59194;BME280;44967;48.598;15.650;2023-02-16T07:14:20;99354.25;;;-1.55;80.87
59194;BME280;44967;48.598;15.650;2023-02-16T07:16:45;99352.41;;;-1.59;80.28
59194;BME280;44967;48.598;15.650;2023-02-16T07:19:11;99358.31;;;-1.62;80.44
59194;BME280;44967;48.598;15.650;2023-02-16T07:21:36;99357.66;;;-1.56;80.03
59194;BME280;44967;48.598;15.650;2023-02-16T07:24:02;99358.75;;;-1.50;80.39
59194;BME280;44967;48.598;15.650;2023-02-16T07:26:28;99358.28;;;-1.38;79.81
59194;BME280;44967;48.598;15.650;2023-02-16T07:28:53;99359.72;;;-1.21;79.89
59194;BME280;44967;48.598;15.650;2023-02-16T07:31:19;99359.81;;;-1.18;79.13
59194;BME280;44967;48.598;15.650;2023-02-16T07:33:45;99361.53;;;-1.18;78.18
59194;BME280;44967;48.598;15.650;2023-02-16T07:36:11;99363.38;;;-1.14;78.28
59194;BME280;44967;48.598;15.650;2023-02-16T07:38:38;99359.31;;;-1.08;78.23
59194;BME280;44967;48.598;15.650;2023-02-16T07:41:06;99359.00;;;-1.17;77.60
59194;BME280;44967;48.598;15.650;2023-02-16T07:43:32;99356.97;;;-1.25;78.05
59194;BME280;44967;48.598;15.650;2023-02-16T07:45:59;99359.47;;;-1.28;78.33
59194;BME280;44967;48.598;15.650;2023-02-16T07:48:25;99353.97;;;-1.37;79.14
59194;BME280;44967;48.598;15.650;2023-02-16T07:50:51;99354.41;;;-0.99;79.60
59194;BME280;44967;48.598;15.650;2023-02-16T07:53:16;99353.31;;;-0.50;80.80
59194;BME280;44967;48.598;15.650;2023-02-16T07:55:44;99346.19;;;-0.29;80.55
59194;BME280;44967;48.598;15.650;2023-02-16T07:58:11;99345.16;;;-0.34;78.15
59194;BME280;44967;48.598;15.650;2023-02-16T08:00:54;99351.00;;;-0.41;77.31
59194;BME280;44967;48.598;15.650;2023-02-16T08:03:20;99352.56;;;-0.46;76.82
59194;BME280;44967;48.598;15.650;2023-02-16T08:05:46;99346.84;;;-0.36;76.42
59194;BME280;44967;48.598;15.650;2023-02-16T08:08:11;99347.31;;;-0.49;76.50
59194;BME280;44967;48.598;15.650;2023-02-16T08:10:37;99352.56;;;-0.46;75.92
59194;BME280;44967;48.598;15.650;2023-02-16T08:13:02;99351.59;;;-0.78;76.60
59194;BME280;44967;48.598;15.650;2023-02-16T08:15:28;99350.19;;;-0.68;76.04
59194;BME280;44967;48.598;15.650;2023-02-16T08:17:53;99343.69;;;-0.54;76.81
59194;BME280;44967;48.598;15.650;2023-02-16T08:20:19;99345.25;;;-0.31;76.41
59194;BME280;44967;48.598;15.650;2023-02-16T08:22:44;99346.31;;;-0.24;75.39
59194;BME280;44967;48.598;15.650;2023-02-16T08:25:10;99343.34;;;-0.07;75.96
59194;BME280;44967;48.598;15.650;2023-02-16T08:27:36;99351.50;;;-0.24;75.10
59194;BME280;44967;48.598;15.650;2023-02-16T08:30:02;99351.72;;;-0.17;75.58
59194;BME280;44967;48.598;15.650;2023-02-16T08:32:28;99352.78;;;-0.10;76.44
59194;BME280;44967;48.598;15.650;2023-02-16T08:34:53;99353.53;;;-0.14;76.11
59194;BME280;44967;48.598;15.650;2023-02-16T08:37:20;99345.13;;;-0.06;75.83
59194;BME280;44967;48.598;15.650;2023-02-16T08:39:46;99346.41;;;0.10;76.17
59194;BME280;44967;48.598;15.650;2023-02-16T08:42:13;99350.72;;;0.10;75.46
59194;BME280;44967;48.598;15.650;2023-02-16T08:44:38;99355.03;;;0.08;76.45
59194;BME280;44967;48.598;15.650;2023-02-16T08:47:06;99347.13;;;0.05;76.66
59194;BME280;44967;48.598;15.650;2023-02-16T08:49:33;99354.69;;;0.27;76.35
59194;BME280;44967;48.598;15.650;2023-02-16T08:51:59;99351.31;;;0.31;75.54
59194;BME280;44967;48.598;15.650;2023-02-16T08:54:28;99359.47;;;0.44;75.39
59194;BME280;44967;48.598;15.650;2023-02-16T08:56:55;99353.81;;;0.26;76.15
59194;BME280;44967;48.598;15.650;2023-02-16T08:59:22;99349.50;;;0.27;74.97
59194;BME280;44967;48.598;15.650;2023-02-16T09:01:48;99353.31;;;0.10;76.46
59194;BME280;44967;48.598;15.650;2023-02-16T09:04:15;99339.63;;;0.15;76.86
59194;BME280;44967;48.598;15.650;2023-02-16T09:06:43;99352.09;;;0.27;76.57
59194;BME280;44967;48.598;15.650;2023-02-16T09:09:09;99351.41;;;0.34;76.70
59194;BME280;44967;48.598;15.650;2023-02-16T09:11:36;99349.63;;;0.31;76.83
59194;BME280;44967;48.598;15.650;2023-02-16T09:14:02;99344.19;;;0.24;76.39
59194;BME280;44967;48.598;15.650;2023-02-16T09:16:28;99352.09;;;0.27;76.57
59194;BME280;44967;48.598;15.650;2023-02-16T09:18:59;99351.41;;;0.34;77.26
59194;BME280;44967;48.598;15.650;2023-02-16T09:21:26;99347.78;;;0.29;76.44
59194;BME280;44967;48.598;15.650;2023-02-16T09:23:56;99344.28;;;0.27;76.93
59194;BME280;44967;48.598;15.650;2023-02-16T09:26:23;99351.94;;;0.54;76.69
59194;BME280;44967;48.598;15.650;2023-02-16T09:28:50;99346.88;;;0.60;76.44
59194;BME280;44967;48.598;15.650;2023-02-16T09:31:20;99338.50;;;0.71;76.07
59194;BME280;44967;48.598;15.650;2023-02-16T09:34:00;99340.44;;;0.78;75.66
59194;BME280;44967;48.598;15.650;2023-02-16T09:36:26;99341.00;;;0.67;75.31
59194;BME280;44967;48.598;15.650;2023-02-16T09:38:52;99344.19;;;0.91;76.30
59194;BME280;44967;48.598;15.650;2023-02-16T09:44:21;99338.13;;;1.26;74.79
59194;BME280;44967;48.598;15.650;2023-02-16T09:46:54;99332.69;;;1.17;74.66
59194;BME280;44967;48.598;15.650;2023-02-16T09:51:48;99338.31;;;1.34;75.92
59194;BME280;44967;48.598;15.650;2023-02-16T09:54:59;99330.56;;;1.38;75.31
59194;BME280;44967;48.598;15.650;2023-02-16T10:05:23;99330.47;;;1.73;73.82
59194;BME280;44967;48.598;15.650;2023-02-16T10:13:40;99316.81;;;1.86;75.82
59194;BME280;44967;48.598;15.650;2023-02-16T10:16:13;99328.53;;;1.64;75.01
59194;BME280;44967;48.598;15.650;2023-02-16T10:18:46;99326.88;;;1.68;75.24
59194;BME280;44967;48.598;15.650;2023-02-16T10:21:22;99329.16;;;1.53;76.16
59194;BME280;44967;48.598;15.650;2023-02-16T10:24:10;99318.59;;;1.85;74.62
59194;BME280;44967;48.598;15.650;2023-02-16T10:26:41;99304.13;;;2.01;74.13
59194;BME280;44967;48.598;15.650;2023-02-16T10:29:14;99307.69;;;2.06;74.70
59194;BME280;44967;48.598;15.650;2023-02-16T10:32:03;99297.78;;;1.88;74.83
59194;BME280;44967;48.598;15.650;2023-02-16T10:48:13;99286.84;;;2.54;75.24
59194;BME280;44967;48.598;15.650;2023-02-16T10:50:52;99288.63;;;2.58;74.01
59194;BME280;44967;48.598;15.650;2023-02-16T10:53:33;99291.25;;;2.57;73.88
59194;BME280;44967;48.598;15.650;2023-02-16T10:55:59;99280.91;;;2.63;74.32
59194;BME280;44967;48.598;15.650;2023-02-16T10:58:27;99285.34;;;2.70;73.46
59194;BME280;44967;48.598;15.650;2023-02-16T11:03:32;99258.53;;;2.78;74.78
59194;BME280;44967;48.598;15.650;2023-02-16T11:06:25;99254.50;;;2.99;73.76
59194;BME280;44967;48.598;15.650;2023-02-16T11:08:54;99257.19;;;3.03;73.74
59194;BME280;44967;48.598;15.650;2023-02-16T11:11:28;99244.47;;;3.29;74.12
59194;BME280;44967;48.598;15.650;2023-02-16T11:14:01;99239.19;;;3.24;73.85
59194;BME280;44967;48.598;15.650;2023-02-16T11:16:28;99240.97;;;3.25;73.31
59194;BME280;44967;48.598;15.650;2023-02-16T11:19:07;99237.56;;;3.31;74.01
59194;BME280;44967;48.598;15.650;2023-02-16T11:21:51;99236.81;;;3.40;73.97
59194;BME280;44967;48.598;15.650;2023-02-16T11:24:36;99236.34;;;3.75;73.02
59194;BME280;44967;48.598;15.650;2023-02-16T11:27:21;99228.66;;;3.88;72.23
59194;BME280;44967;48.598;15.650;2023-02-16T11:29:47;99212.19;;;3.95;72.73
59194;BME280;44967;48.598;15.650;2023-02-16T11:32:16;99224.50;;;4.08;73.02
59194;BME280;44967;48.598;15.650;2023-02-16T11:34:46;99214.25;;;4.26;72.39
59194;BME280;44967;48.598;15.650;2023-02-16T11:37:25;99214.41;;;4.44;72.07
59194;BME280;44967;48.598;15.650;2023-02-16T11:39:55;99210.91;;;4.42;71.93
59194;BME280;44967;48.598;15.650;2023-02-16T11:42:35;99199.59;;;4.45;71.69
59194;BME280;44967;48.598;15.650;2023-02-16T11:45:06;99191.81;;;4.58;71.30
59194;BME280;44967;48.598;15.650;2023-02-16T11:47:35;99188.47;;;4.73;70.46
59194;BME280;44967;48.598;15.650;2023-02-16T11:50:27;99179.88;;;4.94;70.79
59194;BME280;44967;48.598;15.650;2023-02-16T11:55:42;99167.72;;;5.11;70.49
59194;BME280;44967;48.598;15.650;2023-02-16T11:58:17;99171.13;;;4.98;70.90
59194;BME280;44967;48.598;15.650;2023-02-16T12:03:58;99167.84;;;5.35;71.40
59194;BME280;44967;48.598;15.650;2023-02-16T12:20:18;99149.66;;;5.82;69.51
59194;BME280;44967;48.598;15.650;2023-02-16T12:22:49;99140.91;;;5.85;69.05
59194;BME280;44967;48.598;15.650;2023-02-16T12:28:13;99127.00;;;5.96;69.67
59194;BME280;44967;48.598;15.650;2023-02-16T12:30:55;99133.97;;;6.05;69.42
59194;BME280;44967;48.598;15.650;2023-02-16T12:33:38;99119.13;;;6.22;68.97
59194;BME280;44967;48.598;15.650;2023-02-16T12:44:17;99108.56;;;6.61;67.01
59194;BME280;44967;48.598;15.650;2023-02-16T12:46:59;99098.06;;;6.75;67.18
59194;BME280;44967;48.598;15.650;2023-02-16T12:49:45;99103.25;;;6.89;66.33
59194;BME280;44967;48.598;15.650;2023-02-16T12:54:54;99095.38;;;6.90;65.11
59194;BME280;44967;48.598;15.650;2023-02-16T12:57:25;99090.97;;;6.92;64.40
59194;BME280;44967;48.598;15.650;2023-02-16T12:59:56;99090.91;;;7.17;64.70
59194;BME280;44967;48.598;15.650;2023-02-16T13:02:46;99092.66;;;7.16;63.82
59194;BME280;44967;48.598;15.650;2023-02-16T13:05:29;99090.06;;;7.10;62.57
59194;BME280;44967;48.598;15.650;2023-02-16T13:13:33;99079.47;;;7.28;64.18
59194;BME280;44967;48.598;15.650;2023-02-16T13:16:07;99075.06;;;7.27;63.46
59194;BME280;44967;48.598;15.650;2023-02-16T13:18:38;99085.56;;;7.36;62.55
59194;BME280;44967;48.598;15.650;2023-02-16T13:24:42;99074.06;;;7.51;62.70
59194;BME280;44967;48.598;15.650;2023-02-16T13:33:03;99082.66;;;7.80;61.70
59194;BME280;44967;48.598;15.650;2023-02-16T13:35:58;99077.41;;;7.80;60.99
59194;BME280;44967;48.598;15.650;2023-02-16T13:44:18;99079.94;;;7.91;60.97
59194;BME280;44967;48.598;15.650;2023-02-16T13:46:48;99084.25;;;8.02;61.22
59194;BME280;44967;48.598;15.650;2023-02-16T13:49:47;99082.34;;;8.21;60.38
59194;BME280;44967;48.598;15.650;2023-02-16T13:52:31;99079.75;;;8.15;59.85
59194;BME280;44967;48.598;15.650;2023-02-16T13:54:59;99074.44;;;8.24;59.72
59194;BME280;44967;48.598;15.650;2023-02-16T14:00:45;99057.59;;;8.43;59.63
59194;BME280;44967;48.598;15.650;2023-02-16T14:05:51;99057.69;;;8.36;58.98
59194;BME280;44967;48.598;15.650;2023-02-16T14:08:20;99057.69;;;8.34;59.72
59194;BME280;44967;48.598;15.650;2023-02-16T14:15:50;99048.69;;;8.53;60.38
59194;BME280;44967;48.598;15.650;2023-02-16T14:18:31;99053.78;;;8.72;59.12
59194;BME280;44967;48.598;15.650;2023-02-16T14:21:14;99049.44;;;8.68;58.04
59194;BME280;44967;48.598;15.650;2023-02-16T14:23:41;99049.56;;;8.56;58.43
59194;BME280;44967;48.598;15.650;2023-02-16T14:26:08;99050.41;;;8.61;58.19
59194;BME280;44967;48.598;15.650;2023-02-16T14:29:09;99053.88;;;8.63;58.32
59194;BME280;44967;48.598;15.650;2023-02-16T14:31:44;99051.22;;;8.69;58.34
59194;BME280;44967;48.598;15.650;2023-02-16T14:34:18;99046.03;;;8.60;58.77
59194;BME280;44967;48.598;15.650;2023-02-16T14:37:08;99046.72;;;8.77;58.03
59194;BME280;44967;48.598;15.650;2023-02-16T14:39:36;99047.56;;;8.79;58.47
59194;BME280;44967;48.598;15.650;2023-02-16T14:42:14;99049.28;;;8.81;58.03
59194;BME280;44967;48.598;15.650;2023-02-16T14:48:20;99048.69;;;8.55;59.18
59194;BME280;44967;48.598;15.650;2023-02-16T14:56:47;99042.47;;;8.64;58.36
59194;BME280;44967;48.598;15.650;2023-02-16T15:01:41;99032.88;;;8.57;58.33
59194;BME280;44967;48.598;15.650;2023-02-16T15:04:09;99037.09;;;8.73;58.74
59194;BME280;44967;48.598;15.650;2023-02-16T15:06:42;99042.50;;;8.58;58.37
59194;BME280;44967;48.598;15.650;2023-02-16T15:09:21;99042.59;;;8.53;59.56
59194;BME280;44967;48.598;15.650;2023-02-16T15:11:51;99039.25;;;8.37;60.73
59194;BME280;44967;48.598;15.650;2023-02-16T15:14:49;99040.13;;;8.35;60.98
59194;BME280;44967;48.598;15.650;2023-02-16T15:17:33;99043.78;;;8.16;60.88
59194;BME280;44967;48.598;15.650;2023-02-16T15:20:12;99042.09;;;8.09;61.49
59194;BME280;44967;48.598;15.650;2023-02-16T15:22:56;99029.72;;;8.18;62.16
59194;BME280;44967;48.598;15.650;2023-02-16T15:27:59;99038.78;;;7.85;62.52
59194;BME280;44967;48.598;15.650;2023-02-16T15:30:33;99039.69;;;7.80;62.81
59194;BME280;44967;48.598;15.650;2023-02-16T15:33:06;99032.59;;;7.94;62.47
59194;BME280;44967;48.598;15.650;2023-02-16T15:35:39;99023.94;;;7.77;63.29
59194;BME280;44967;48.598;15.650;2023-02-16T15:40:41;99035.41;;;7.64;64.59
59194;BME280;44967;48.598;15.650;2023-02-16T15:43:15;99032.03;;;7.48;65.37
59194;BME280;44967;48.598;15.650;2023-02-16T15:45:48;99041.72;;;7.40;66.02